CheckWX is a tool to help pilots better visualize weather data.  It is not intended as a substitute for an official pre-flight weather briefing.

10:09:24 UTC

UKDR TAF
Kryvyi Rih International Airport
Kryvyi Rih, Ukraine
TAF UKDR 260506Z 2606/2706 05006MPS 9999 SCT030 TX29/2612Z TN17/2702Z BECMG 2616/2618 VRB01MPS

Jun-26@
06:00 UTC

Jun-26 @ 06:00 UTC

Jun-26@
16:00 UTC

Jun-26 @ 16:00 UTC

TAF UKDR 260506Z 2606/2706 05006MPS 9999 SCT030 TX29/2612Z TN17/2702Z
Wind
  • 050° at 12 KTS
Cloud Levels
  • Scattered at 3,000' AGL

Jun-26@
16:00 UTC

Jun-26 @ 16:00 UTC

Jun-27@
06:00 UTC

Jun-27 @ 06:00 UTC

BECMG 2616/2618 VRB01MPS

Becoming

Becoming Conditions expected by Wed, Jun 26, 2019 @ 18:00 UTC

Wind
  • Variable at 2 KTS
Cloud Levels
  • Scattered at 3,000' AGL